sensor_id;sensor_type;location;lat;lon;timestamp;temperature;humidity
16140;DHT22;8175;49.326;12.690;2023-07-28T05:29:44;14.50;99.90
16140;DHT22;8175;49.326;12.690;2023-07-28T05:32:09;14.60;99.90
16140;DHT22;8175;49.326;12.690;2023-07-28T05:34:35;14.70;99.90
16140;DHT22;8175;49.326;12.690;2023-07-28T05:37:01;14.80;99.90
16140;DHT22;8175;49.326;12.690;2023-07-28T05:39:26;14.90;99.90
16140;DHT22;8175;49.326;12.690;2023-07-28T05:41:52;14.90;99.90
16140;DHT22;8175;49.326;12.690;2023-07-28T05:54:59;14.80;99.90
16140;DHT22;8175;49.326;12.690;2023-07-28T05:57:24;14.80;99.90
16140;DHT22;8175;49.326;12.690;2023-07-28T05:59:50;14.80;99.90
16140;DHT22;8175;49.326;12.690;2023-07-28T06:02:16;14.90;99.90
16140;DHT22;8175;49.326;12.690;2023-07-28T06:04:42;15.00;99.90
16140;DHT22;8175;49.326;12.690;2023-07-28T06:07:09;15.20;99.90
16140;DHT22;8175;49.326;12.690;2023-07-28T06:09:35;15.10;99.90
16140;DHT22;8175;49.326;12.690;2023-07-28T06:12:00;15.00;99.90
16140;DHT22;8175;49.326;12.690;2023-07-28T06:14:26;15.00;99.90
16140;DHT22;8175;49.326;12.690;2023-07-28T06:16:52;15.10;99.90
16140;DHT22;8175;49.326;12.690;2023-07-28T06:19:17;15.30;99.90
16140;DHT22;8175;49.326;12.690;2023-07-28T06:21:51;15.40;99.90
16140;DHT22;8175;49.326;12.690;2023-07-28T06:24:17;15.40;99.90
16140;DHT22;8175;49.326;12.690;2023-07-28T06:26:43;15.40;99.90
16140;DHT22;8175;49.326;12.690;2023-07-28T06:29:09;15.40;99.90
16140;DHT22;8175;49.326;12.690;2023-07-28T06:31:34;15.50;99.90
16140;DHT22;8175;49.326;12.690;2023-07-28T06:34:00;15.70;99.90
16140;DHT22;8175;49.326;12.690;2023-07-28T06:36:25;15.70;99.90
16140;DHT22;8175;49.326;12.690;2023-07-28T06:38:53;15.80;99.90
16140;DHT22;8175;49.326;12.690;2023-07-28T06:41:20;15.90;99.90
16140;DHT22;8175;49.326;12.690;2023-07-28T06:43:46;15.70;99.90
16140;DHT22;8175;49.326;12.690;2023-07-28T06:46:14;15.60;99.90
16140;DHT22;8175;49.326;12.690;2023-07-28T06:48:39;15.60;99.90
16140;DHT22;8175;49.326;12.690;2023-07-28T06:51:06;15.70;99.90
16140;DHT22;8175;49.326;12.690;2023-07-28T06:53:32;15.60;99.90
16140;DHT22;8175;49.326;12.690;2023-07-28T06:55:57;15.50;99.90
16140;DHT22;8175;49.326;12.690;2023-07-28T06:58:23;15.40;99.90
16140;DHT22;8175;49.326;12.690;2023-07-28T07:00:49;15.40;99.90
16140;DHT22;8175;49.326;12.690;2023-07-28T07:03:14;15.50;99.90
16140;DHT22;8175;49.326;12.690;2023-07-28T07:05:40;15.50;99.90
16140;DHT22;8175;49.326;12.690;2023-07-28T07:08:06;15.70;99.90
16140;DHT22;8175;49.326;12.690;2023-07-28T07:10:31;15.80;99.90
16140;DHT22;8175;49.326;12.690;2023-07-28T07:12:57;15.80;99.90
16140;DHT22;8175;49.326;12.690;2023-07-28T07:15:23;16.00;99.90
16140;DHT22;8175;49.326;12.690;2023-07-28T07:17:49;16.20;99.90
16140;DHT22;8175;49.326;12.690;2023-07-28T07:20:14;16.20;99.90
16140;DHT22;8175;49.326;12.690;2023-07-28T07:22:41;16.50;99.90
16140;DHT22;8175;49.326;12.690;2023-07-28T07:25:07;16.70;99.90
16140;DHT22;8175;49.326;12.690;2023-07-28T07:27:33;16.80;99.90
16140;DHT22;8175;49.326;12.690;2023-07-28T07:29:58;17.00;99.90
16140;DHT22;8175;49.326;12.690;2023-07-28T07:32:24;17.00;99.90
16140;DHT22;8175;49.326;12.690;2023-07-28T07:34:50;16.90;99.90
16140;DHT22;8175;49.326;12.690;2023-07-28T07:37:15;16.80;99.90
16140;DHT22;8175;49.326;12.690;2023-07-28T07:39:41;16.70;99.90
16140;DHT22;8175;49.326;12.690;2023-07-28T07:42:10;16.90;99.90
16140;DHT22;8175;49.326;12.690;2023-07-28T07:44:37;17.20;99.90
16140;DHT22;8175;49.326;12.690;2023-07-28T07:47:14;17.40;99.90
16140;DHT22;8175;49.326;12.690;2023-07-28T07:49:41;17.50;99.90
16140;DHT22;8175;49.326;12.690;2023-07-28T07:52:07;17.70;99.90
16140;DHT22;8175;49.326;12.690;2023-07-28T07:54:33;17.90;99.90
16140;DHT22;8175;49.326;12.690;2023-07-28T07:56:59;17.80;99.90
16140;DHT22;8175;49.326;12.690;2023-07-28T07:59:25;17.60;99.90
16140;DHT22;8175;49.326;12.690;2023-07-28T08:01:53;17.60;99.90
16140;DHT22;8175;49.326;12.690;2023-07-28T08:04:19;17.50;99.90
16140;DHT22;8175;49.326;12.690;2023-07-28T08:06:45;17.50;99.90
16140;DHT22;8175;49.326;12.690;2023-07-28T08:09:10;17.60;99.90
16140;DHT22;8175;49.326;12.690;2023-07-28T08:11:36;17.70;99.90
16140;DHT22;8175;49.326;12.690;2023-07-28T08:14:02;17.70;99.90
16140;DHT22;8175;49.326;12.690;2023-07-28T08:16:28;17.60;99.90
16140;DHT22;8175;49.326;12.690;2023-07-28T08:18:54;17.60;99.90
16140;DHT22;8175;49.326;12.690;2023-07-28T08:21:19;17.40;99.90
16140;DHT22;8175;49.326;12.690;2023-07-28T08:23:45;17.50;99.90
16140;DHT22;8175;49.326;12.690;2023-07-28T08:26:11;17.50;99.90
16140;DHT22;8175;49.326;12.690;2023-07-28T08:28:36;17.30;99.90
16140;DHT22;8175;49.326;12.690;2023-07-28T08:31:02;17.20;99.90
16140;DHT22;8175;49.326;12.690;2023-07-28T08:33:29;17.20;99.90
16140;DHT22;8175;49.326;12.690;2023-07-28T08:35:55;17.10;99.90
16140;DHT22;8175;49.326;12.690;2023-07-28T08:38:20;17.00;99.90
16140;DHT22;8175;49.326;12.690;2023-07-28T08:40:46;17.00;99.90
16140;DHT22;8175;49.326;12.690;2023-07-28T08:43:12;17.00;99.90
16140;DHT22;8175;49.326;12.690;2023-07-28T08:45:38;17.00;99.90
16140;DHT22;8175;49.326;12.690;2023-07-28T08:48:05;17.10;99.90
16140;DHT22;8175;49.326;12.690;2023-07-28T08:50:31;17.30;99.90
16140;DHT22;8175;49.326;12.690;2023-07-28T08:52:57;17.50;99.90
16140;DHT22;8175;49.326;12.690;2023-07-28T08:55:23;17.60;99.90
16140;DHT22;8175;49.326;12.690;2023-07-28T08:57:48;17.70;99.90
16140;DHT22;8175;49.326;12.690;2023-07-28T09:00:15;17.70;99.90
16140;DHT22;8175;49.326;12.690;2023-07-28T09:02:43;17.70;99.90
16140;DHT22;8175;49.326;12.690;2023-07-28T09:05:19;17.90;99.90
16140;DHT22;8175;49.326;12.690;2023-07-28T09:07:45;18.00;99.90
16140;DHT22;8175;49.326;12.690;2023-07-28T09:10:11;18.00;99.90
16140;DHT22;8175;49.326;12.690;2023-07-28T09:12:47;17.70;99.90
16140;DHT22;8175;49.326;12.690;2023-07-28T09:15:14;17.50;99.90
16140;DHT22;8175;49.326;12.690;2023-07-28T09:17:43;17.30;99.90
16140;DHT22;8175;49.326;12.690;2023-07-28T09:20:13;17.20;99.90
16140;DHT22;8175;49.326;12.690;2023-07-28T09:22:39;17.10;99.90
16140;DHT22;8175;49.326;12.690;2023-07-28T09:25:15;16.90;99.90
16140;DHT22;8175;49.326;12.690;2023-07-28T09:27:48;16.90;99.90
16140;DHT22;8175;49.326;12.690;2023-07-28T09:30:14;16.90;99.90
16140;DHT22;8175;49.326;12.690;2023-07-28T09:32:50;16.90;99.90
16140;DHT22;8175;49.326;12.690;2023-07-28T09:35:16;16.90;99.90
16140;DHT22;8175;49.326;12.690;2023-07-28T09:37:44;16.90;99.90
16140;DHT22;8175;49.326;12.690;2023-07-28T09:40:16;16.80;99.90
16140;DHT22;8175;49.326;12.690;2023-07-28T09:42:43;16.80;99.90
16140;DHT22;8175;49.326;12.690;2023-07-28T09:45:10;16.80;99.90
16140;DHT22;8175;49.326;12.690;2023-07-28T09:47:37;16.80;99.90
16140;DHT22;8175;49.326;12.690;2023-07-28T09:50:07;16.80;99.90
16140;DHT22;8175;49.326;12.690;2023-07-28T09:52:39;16.80;99.90
16140;DHT22;8175;49.326;12.690;2023-07-28T09:55:08;17.00;99.90
16140;DHT22;8175;49.326;12.690;2023-07-28T09:57:39;17.10;99.90
16140;DHT22;8175;49.326;12.690;2023-07-28T10:00:08;17.10;99.90
16140;DHT22;8175;49.326;12.690;2023-07-28T10:02:36;17.20;99.90
16140;DHT22;8175;49.326;12.690;2023-07-28T10:05:03;17.30;99.90
16140;DHT22;8175;49.326;12.690;2023-07-28T10:07:30;17.30;99.90
16140;DHT22;8175;49.326;12.690;2023-07-28T10:09:56;17.40;99.90
16140;DHT22;8175;49.326;12.690;2023-07-28T10:12:26;17.50;99.90
16140;DHT22;8175;49.326;12.690;2023-07-28T10:15:04;17.60;99.90
16140;DHT22;8175;49.326;12.690;2023-07-28T10:17:34;17.60;99.90
16140;DHT22;8175;49.326;12.690;2023-07-28T10:20:06;17.50;99.90
16140;DHT22;8175;49.326;12.690;2023-07-28T10:22:44;17.60;99.90
16140;DHT22;8175;49.326;12.690;2023-07-28T10:25:10;17.80;99.90
16140;DHT22;8175;49.326;12.690;2023-07-28T10:27:36;18.00;99.90
16140;DHT22;8175;49.326;12.690;2023-07-28T10:30:05;18.20;99.90
16140;DHT22;8175;49.326;12.690;2023-07-28T10:32:45;18.40;99.90
16140;DHT22;8175;49.326;12.690;2023-07-28T10:37:46;19.00;99.90
16140;DHT22;8175;49.326;12.690;2023-07-28T10:42:50;19.60;99.90
16140;DHT22;8175;49.326;12.690;2023-07-28T10:45:16;19.40;99.90
16140;DHT22;8175;49.326;12.690;2023-07-28T10:47:43;19.70;99.90
16140;DHT22;8175;49.326;12.690;2023-07-28T10:50:09;19.90;99.90
16140;DHT22;8175;49.326;12.690;2023-07-28T10:52:42;20.20;99.90
16140;DHT22;8175;49.326;12.690;2023-07-28T10:55:14;20.20;99.90
16140;DHT22;8175;49.326;12.690;2023-07-28T10:57:41;20.50;99.90
16140;DHT22;8175;49.326;12.690;2023-07-28T11:00:08;20.90;99.90
16140;DHT22;8175;49.326;12.690;2023-07-28T11:02:41;21.10;99.90
16140;DHT22;8175;49.326;12.690;2023-07-28T11:05:13;21.60;99.90
16140;DHT22;8175;49.326;12.690;2023-07-28T11:07:43;21.60;99.90
16140;DHT22;8175;49.326;12.690;2023-07-28T11:10:10;21.90;99.90
16140;DHT22;8175;49.326;12.690;2023-07-28T11:12:40;22.60;99.90
16140;DHT22;8175;49.326;12.690;2023-07-28T11:15:09;22.90;99.90
16140;DHT22;8175;49.326;12.690;2023-07-28T11:17:40;23.50;99.90
16140;DHT22;8175;49.326;12.690;2023-07-28T11:20:32;23.80;99.90
16140;DHT22;8175;49.326;12.690;2023-07-28T11:23:00;24.50;99.90
16140;DHT22;8175;49.326;12.690;2023-07-28T11:25:28;25.50;99.90
16140;DHT22;8175;49.326;12.690;2023-07-28T11:27:54;25.80;99.90
16140;DHT22;8175;49.326;12.690;2023-07-28T11:30:21;25.80;99.90
16140;DHT22;8175;49.326;12.690;2023-07-28T11:32:49;25.00;99.90
16140;DHT22;8175;49.326;12.690;2023-07-28T11:35:17;24.10;99.90
16140;DHT22;8175;49.326;12.690;2023-07-28T11:37:45;23.30;99.90
16140;DHT22;8175;49.326;12.690;2023-07-28T11:40:11;22.20;99.90
16140;DHT22;8175;49.326;12.690;2023-07-28T11:42:40;21.10;99.90
16140;DHT22;8175;49.326;12.690;2023-07-28T11:45:07;20.50;99.90
16140;DHT22;8175;49.326;12.690;2023-07-28T11:47:33;21.30;99.90
16140;DHT22;8175;49.326;12.690;2023-07-28T11:49:59;22.80;99.90
16140;DHT22;8175;49.326;12.690;2023-07-28T11:52:36;23.70;99.90
16140;DHT22;8175;49.326;12.690;2023-07-28T11:55:05;24.20;99.90
16140;DHT22;8175;49.326;12.690;2023-07-28T11:57:32;24.00;99.90
16140;DHT22;8175;49.326;12.690;2023-07-28T12:00:03;23.20;99.90
16140;DHT22;8175;49.326;12.690;2023-07-28T12:02:31;22.40;99.90
16140;DHT22;8175;49.326;12.690;2023-07-28T12:04:58;21.60;99.90
16140;DHT22;8175;49.326;12.690;2023-07-28T12:07:31;21.90;99.90
16140;DHT22;8175;49.326;12.690;2023-07-28T12:10:03;22.50;99.90
16140;DHT22;8175;49.326;12.690;2023-07-28T12:12:38;22.80;99.90
16140;DHT22;8175;49.326;12.690;2023-07-28T12:15:18;22.30;99.90
16140;DHT22;8175;49.326;12.690;2023-07-28T12:18:08;22.10;99.90
16140;DHT22;8175;49.326;12.690;2023-07-28T12:23:06;22.90;99.90
16140;DHT22;8175;49.326;12.690;2023-07-28T12:25:34;22.90;99.90
16140;DHT22;8175;49.326;12.690;2023-07-28T12:28:02;23.20;99.90
16140;DHT22;8175;49.326;12.690;2023-07-28T12:30:28;23.60;99.90
16140;DHT22;8175;49.326;12.690;2023-07-28T12:32:54;24.20;99.90
16140;DHT22;8175;49.326;12.690;2023-07-28T12:35:20;24.50;99.90
16140;DHT22;8175;49.326;12.690;2023-07-28T12:37:51;24.40;99.90
16140;DHT22;8175;49.326;12.690;2023-07-28T12:40:18;23.60;99.90
16140;DHT22;8175;49.326;12.690;2023-07-28T12:42:45;23.10;99.90
16140;DHT22;8175;49.326;12.690;2023-07-28T12:45:12;23.30;99.90
16140;DHT22;8175;49.326;12.690;2023-07-28T12:47:39;23.30;99.90
16140;DHT22;8175;49.326;12.690;2023-07-28T12:50:04;23.40;99.90
16140;DHT22;8175;49.326;12.690;2023-07-28T12:52:32;23.60;99.90
16140;DHT22;8175;49.326;12.690;2023-07-28T12:54:57;23.80;99.90
16140;DHT22;8175;49.326;12.690;2023-07-28T12:57:24;24.60;99.90
16140;DHT22;8175;49.326;12.690;2023-07-28T12:59:49;25.40;99.90
16140;DHT22;8175;49.326;12.690;2023-07-28T13:02:15;25.40;99.90
16140;DHT22;8175;49.326;12.690;2023-07-28T13:04:41;25.00;99.90
16140;DHT22;8175;49.326;12.690;2023-07-28T13:07:06;24.80;99.90
16140;DHT22;8175;49.326;12.690;2023-07-28T13:09:32;25.40;99.90
16140;DHT22;8175;49.326;12.690;2023-07-28T13:11:58;25.50;99.90
16140;DHT22;8175;49.326;12.690;2023-07-28T13:14:24;24.70;99.90
16140;DHT22;8175;49.326;12.690;2023-07-28T13:16:50;24.00;99.90
16140;DHT22;8175;49.326;12.690;2023-07-28T13:19:16;23.40;99.90
16140;DHT22;8175;49.326;12.690;2023-07-28T13:21:42;23.00;99.90
16140;DHT22;8175;49.326;12.690;2023-07-28T13:24:07;22.70;99.90
16140;DHT22;8175;49.326;12.690;2023-07-28T13:26:33;22.50;99.90
16140;DHT22;8175;49.326;12.690;2023-07-28T13:28:59;22.50;99.90
16140;DHT22;8175;49.326;12.690;2023-07-28T13:31:27;23.10;99.90
16140;DHT22;8175;49.326;12.690;2023-07-28T13:33:53;23.50;99.90
16140;DHT22;8175;49.326;12.690;2023-07-28T13:36:19;23.30;99.90
16140;DHT22;8175;49.326;12.690;2023-07-28T13:38:44;23.40;99.90
16140;DHT22;8175;49.326;12.690;2023-07-28T13:41:11;23.70;99.90
16140;DHT22;8175;49.326;12.690;2023-07-28T13:43:37;24.20;99.90
16140;DHT22;8175;49.326;12.690;2023-07-28T13:46:04;24.70;99.90
16140;DHT22;8175;49.326;12.690;2023-07-28T13:48:33;25.80;99.90
16140;DHT22;8175;49.326;12.690;2023-07-28T13:51:00;25.90;99.90
16140;DHT22;8175;49.326;12.690;2023-07-28T13:53:27;24.80;99.90
16140;DHT22;8175;49.326;12.690;2023-07-28T13:55:54;24.20;99.90
16140;DHT22;8175;49.326;12.690;2023-07-28T13:58:21;23.60;99.90
16140;DHT22;8175;49.326;12.690;2023-07-28T14:00:46;22.80;99.90
16140;DHT22;8175;49.326;12.690;2023-07-28T14:03:12;22.30;99.90
16140;DHT22;8175;49.326;12.690;2023-07-28T14:05:39;22.00;99.90
16140;DHT22;8175;49.326;12.690;2023-07-28T14:08:05;21.70;99.90
16140;DHT22;8175;49.326;12.690;2023-07-28T14:10:31;21.70;99.90
16140;DHT22;8175;49.326;12.690;2023-07-28T14:12:58;21.90;99.90
16140;DHT22;8175;49.326;12.690;2023-07-28T14:15:24;22.50;99.90
16140;DHT22;8175;49.326;12.690;2023-07-28T14:17:50;24.00;99.90
16140;DHT22;8175;49.326;12.690;2023-07-28T14:20:16;25.40;99.90
16140;DHT22;8175;49.326;12.690;2023-07-28T14:22:42;26.50;99.90
16140;DHT22;8175;49.326;12.690;2023-07-28T14:25:08;26.70;99.90
16140;DHT22;8175;49.326;12.690;2023-07-28T14:27:34;27.00;99.90
16140;DHT22;8175;49.326;12.690;2023-07-28T14:29:59;27.00;99.90
16140;DHT22;8175;49.326;12.690;2023-07-28T14:32:25;26.40;99.90
16140;DHT22;8175;49.326;12.690;2023-07-28T14:34:51;26.10;99.90
16140;DHT22;8175;49.326;12.690;2023-07-28T14:37:17;25.50;99.90
16140;DHT22;8175;49.326;12.690;2023-07-28T14:39:43;24.60;99.90
16140;DHT22;8175;49.326;12.690;2023-07-28T14:42:09;24.30;99.90
16140;DHT22;8175;49.326;12.690;2023-07-28T14:44:36;24.40;99.90
16140;DHT22;8175;49.326;12.690;2023-07-28T14:47:01;24.50;99.90
16140;DHT22;8175;49.326;12.690;2023-07-28T14:49:27;24.30;99.90
16140;DHT22;8175;49.326;12.690;2023-07-28T14:51:56;24.30;99.90
16140;DHT22;8175;49.326;12.690;2023-07-28T14:54:22;24.10;99.90
16140;DHT22;8175;49.326;12.690;2023-07-28T14:56:48;24.00;99.90
16140;DHT22;8175;49.326;12.690;2023-07-28T14:59:13;24.00;99.90
16140;DHT22;8175;49.326;12.690;2023-07-28T15:01:39;23.80;99.90
16140;DHT22;8175;49.326;12.690;2023-07-28T15:04:05;23.90;99.90
16140;DHT22;8175;49.326;12.690;2023-07-28T15:06:32;23.90;99.90
16140;DHT22;8175;49.326;12.690;2023-07-28T15:08:57;23.60;99.90
16140;DHT22;8175;49.326;12.690;2023-07-28T15:11:23;23.20;99.90
16140;DHT22;8175;49.326;12.690;2023-07-28T15:13:50;22.90;99.90
16140;DHT22;8175;49.326;12.690;2023-07-28T15:16:16;23.00;99.90
16140;DHT22;8175;49.326;12.690;2023-07-28T15:18:41;23.10;99.90
16140;DHT22;8175;49.326;12.690;2023-07-28T15:21:07;23.50;99.90
16140;DHT22;8175;49.326;12.690;2023-07-28T15:23:32;23.80;99.90
16140;DHT22;8175;49.326;12.690;2023-07-28T15:25:58;24.20;99.90
16140;DHT22;8175;49.326;12.690;2023-07-28T15:28:24;24.00;99.90
16140;DHT22;8175;49.326;12.690;2023-07-28T15:30:50;23.60;99.90
16140;DHT22;8175;49.326;12.690;2023-07-28T15:33:21;23.20;99.90
16140;DHT22;8175;49.326;12.690;2023-07-28T15:35:49;23.00;99.90
16140;DHT22;8175;49.326;12.690;2023-07-28T15:38:15;22.80;99.90
16140;DHT22;8175;49.326;12.690;2023-07-28T15:40:41;22.60;99.90
16140;DHT22;8175;49.326;12.690;2023-07-28T15:43:06;22.40;99.90
16140;DHT22;8175;49.326;12.690;2023-07-28T15:45:32;22.00;99.90
16140;DHT22;8175;49.326;12.690;2023-07-28T15:47:59;22.20;99.90
16140;DHT22;8175;49.326;12.690;2023-07-28T15:50:24;22.40;99.90
16140;DHT22;8175;49.326;12.690;2023-07-28T15:52:50;22.80;99.90
16140;DHT22;8175;49.326;12.690;2023-07-28T15:55:17;23.40;99.90
16140;DHT22;8175;49.326;12.690;2023-07-28T15:57:43;23.90;99.90
16140;DHT22;8175;49.326;12.690;2023-07-28T16:00:09;24.00;99.90
16140;DHT22;8175;49.326;12.690;2023-07-28T16:02:35;24.00;99.90
16140;DHT22;8175;49.326;12.690;2023-07-28T16:05:01;23.80;99.90
16140;DHT22;8175;49.326;12.690;2023-07-28T16:07:27;23.60;99.90
16140;DHT22;8175;49.326;12.690;2023-07-28T16:09:54;23.40;99.90
16140;DHT22;8175;49.326;12.690;2023-07-28T16:12:20;23.20;99.90
16140;DHT22;8175;49.326;12.690;2023-07-28T16:14:46;23.20;99.90
16140;DHT22;8175;49.326;12.690;2023-07-28T16:17:12;23.10;99.90
16140;DHT22;8175;49.326;12.690;2023-07-28T16:19:38;23.00;99.90
16140;DHT22;8175;49.326;12.690;2023-07-28T16:22:03;22.90;99.90
16140;DHT22;8175;49.326;12.690;2023-07-28T16:24:29;22.60;99.90
16140;DHT22;8175;49.326;12.690;2023-07-28T16:26:55;22.50;99.90
16140;DHT22;8175;49.326;12.690;2023-07-28T16:29:21;22.40;99.90
16140;DHT22;8175;49.326;12.690;2023-07-28T16:31:46;22.30;99.90
16140;DHT22;8175;49.326;12.690;2023-07-28T16:34:12;22.40;99.90
16140;DHT22;8175;49.326;12.690;2023-07-28T16:36:38;22.50;99.90
16140;DHT22;8175;49.326;12.690;2023-07-28T16:39:03;22.40;99.90
16140;DHT22;8175;49.326;12.690;2023-07-28T16:41:29;22.20;99.90
16140;DHT22;8175;49.326;12.690;2023-07-28T16:43:54;22.10;99.90
16140;DHT22;8175;49.326;12.690;2023-07-28T16:46:20;22.10;99.90
16140;DHT22;8175;49.326;12.690;2023-07-28T16:48:46;21.90;99.90
16140;DHT22;8175;49.326;12.690;2023-07-28T16:51:11;21.90;99.90
16140;DHT22;8175;49.326;12.690;2023-07-28T16:53:37;21.80;99.90
16140;DHT22;8175;49.326;12.690;2023-07-28T16:56:03;21.70;99.90
16140;DHT22;8175;49.326;12.690;2023-07-28T16:58:28;21.80;99.90
16140;DHT22;8175;49.326;12.690;2023-07-28T17:00:54;21.60;99.90
16140;DHT22;8175;49.326;12.690;2023-07-28T17:03:20;21.60;99.90
16140;DHT22;8175;49.326;12.690;2023-07-28T17:05:45;21.40;99.90
16140;DHT22;8175;49.326;12.690;2023-07-28T17:08:11;21.40;99.90
16140;DHT22;8175;49.326;12.690;2023-07-28T17:10:36;21.40;99.90
16140;DHT22;8175;49.326;12.690;2023-07-28T17:13:02;21.40;99.90
16140;DHT22;8175;49.326;12.690;2023-07-28T17:15:28;21.30;99.90
16140;DHT22;8175;49.326;12.690;2023-07-28T17:17:54;21.20;99.90
16140;DHT22;8175;49.326;12.690;2023-07-28T17:20:20;21.20;99.90
16140;DHT22;8175;49.326;12.690;2023-07-28T17:22:45;21.10;99.90
16140;DHT22;8175;49.326;12.690;2023-07-28T17:25:11;21.20;99.90
16140;DHT22;8175;49.326;12.690;2023-07-28T17:27:37;21.10;99.90
16140;DHT22;8175;49.326;12.690;2023-07-28T17:30:02;21.10;99.90
16140;DHT22;8175;49.326;12.690;2023-07-28T17:32:28;21.10;99.90
16140;DHT22;8175;49.326;12.690;2023-07-28T17:34:54;21.10;99.90
16140;DHT22;8175;49.326;12.690;2023-07-28T17:37:19;21.10;99.90
16140;DHT22;8175;49.326;12.690;2023-07-28T17:39:45;21.10;99.90
16140;DHT22;8175;49.326;12.690;2023-07-28T17:42:11;21.00;99.90
16140;DHT22;8175;49.326;12.690;2023-07-28T17:44:37;20.90;99.90
16140;DHT22;8175;49.326;12.690;2023-07-28T17:47:02;20.80;99.90
16140;DHT22;8175;49.326;12.690;2023-07-28T17:49:28;20.90;99.90
16140;DHT22;8175;49.326;12.690;2023-07-28T17:51:54;20.80;99.90
16140;DHT22;8175;49.326;12.690;2023-07-28T17:54:19;20.80;99.90
16140;DHT22;8175;49.326;12.690;2023-07-28T17:56:45;20.70;99.90
16140;DHT22;8175;49.326;12.690;2023-07-28T17:59:11;20.60;99.90
16140;DHT22;8175;49.326;12.690;2023-07-28T18:01:36;20.50;99.90
16140;DHT22;8175;49.326;12.690;2023-07-28T18:04:02;20.50;99.90
16140;DHT22;8175;49.326;12.690;2023-07-28T18:06:28;20.40;99.90
16140;DHT22;8175;49.326;12.690;2023-07-28T18:08:54;20.20;99.90
16140;DHT22;8175;49.326;12.690;2023-07-28T18:11:19;20.10;99.90
16140;DHT22;8175;49.326;12.690;2023-07-28T18:13:45;20.00;99.90
16140;DHT22;8175;49.326;12.690;2023-07-28T18:16:11;19.90;99.90
16140;DHT22;8175;49.326;12.690;2023-07-28T18:18:39;19.90;99.90
16140;DHT22;8175;49.326;12.690;2023-07-28T18:21:05;19.90;99.90
16140;DHT22;8175;49.326;12.690;2023-07-28T18:23:31;19.90;99.90
16140;DHT22;8175;49.326;12.690;2023-07-28T18:25:56;19.80;99.90
16140;DHT22;8175;49.326;12.690;2023-07-28T18:28:22;19.60;99.90
16140;DHT22;8175;49.326;12.690;2023-07-28T18:30:48;19.50;99.90
16140;DHT22;8175;49.326;12.690;2023-07-28T18:33:13;19.40;99.90
16140;DHT22;8175;49.326;12.690;2023-07-28T18:35:39;19.50;99.90
16140;DHT22;8175;49.326;12.690;2023-07-28T18:38:05;19.50;99.90
16140;DHT22;8175;49.326;12.690;2023-07-28T18:40:30;19.30;99.90
16140;DHT22;8175;49.326;12.690;2023-07-28T18:42:56;19.20;99.90
16140;DHT22;8175;49.326;12.690;2023-07-28T18:45:22;19.10;99.90
16140;DHT22;8175;49.326;12.690;2023-07-28T18:47:47;19.00;99.90
16140;DHT22;8175;49.326;12.690;2023-07-28T18:50:13;18.90;99.90
16140;DHT22;8175;49.326;12.690;2023-07-28T18:52:40;18.80;99.90
16140;DHT22;8175;49.326;12.690;2023-07-28T18:55:06;18.70;99.90
16140;DHT22;8175;49.326;12.690;2023-07-28T18:57:32;18.60;99.90
16140;DHT22;8175;49.326;12.690;2023-07-28T18:59:58;18.50;99.90
16140;DHT22;8175;49.326;12.690;2023-07-28T19:02:24;18.50;99.90
16140;DHT22;8175;49.326;12.690;2023-07-28T19:04:49;18.40;99.90
16140;DHT22;8175;49.326;12.690;2023-07-28T19:07:15;18.40;99.90
16140;DHT22;8175;49.326;12.690;2023-07-28T19:09:40;18.30;99.90
16140;DHT22;8175;49.326;12.690;2023-07-28T19:12:06;18.20;99.90
16140;DHT22;8175;49.326;12.690;2023-07-28T19:14:32;18.00;99.90
16140;DHT22;8175;49.326;12.690;2023-07-28T19:16:58;17.90;99.90
16140;DHT22;8175;49.326;12.690;2023-07-28T19:19:23;17.80;99.90
16140;DHT22;8175;49.326;12.690;2023-07-28T19:21:49;17.70;99.90
16140;DHT22;8175;49.326;12.690;2023-07-28T19:24:17;17.70;99.90
16140;DHT22;8175;49.326;12.690;2023-07-28T19:26:42;17.70;99.90
16140;DHT22;8175;49.326;12.690;2023-07-28T19:29:09;17.80;99.90
16140;DHT22;8175;49.326;12.690;2023-07-28T19:31:35;17.80;99.90
16140;DHT22;8175;49.326;12.690;2023-07-28T19:34:00;18.00;99.90
16140;DHT22;8175;49.326;12.690;2023-07-28T19:36:27;18.00;99.90
16140;DHT22;8175;49.326;12.690;2023-07-28T19:38:55;18.10;99.90
16140;DHT22;8175;49.326;12.690;2023-07-28T19:41:20;18.00;99.90
16140;DHT22;8175;49.326;12.690;2023-07-28T19:43:46;17.80;99.90
16140;DHT22;8175;49.326;12.690;2023-07-28T19:46:12;17.80;99.90
16140;DHT22;8175;49.326;12.690;2023-07-28T19:48:38;17.60;99.90
16140;DHT22;8175;49.326;12.690;2023-07-28T19:51:04;17.50;99.90
16140;DHT22;8175;49.326;12.690;2023-07-28T19:53:32;17.40;99.90
16140;DHT22;8175;49.326;12.690;2023-07-28T19:55:58;17.40;99.90
16140;DHT22;8175;49.326;12.690;2023-07-28T19:58:24;17.30;99.90
16140;DHT22;8175;49.326;12.690;2023-07-28T20:00:50;17.20;99.90
16140;DHT22;8175;49.326;12.690;2023-07-28T20:03:15;17.10;99.90
16140;DHT22;8175;49.326;12.690;2023-07-28T20:05:41;17.10;99.90
16140;DHT22;8175;49.326;12.690;2023-07-28T20:08:07;17.00;99.90
16140;DHT22;8175;49.326;12.690;2023-07-28T20:10:32;16.90;99.90
16140;DHT22;8175;49.326;12.690;2023-07-28T20:12:59;16.90;99.90
16140;DHT22;8175;49.326;12.690;2023-07-28T20:15:25;16.80;99.90
16140;DHT22;8175;49.326;12.690;2023-07-28T20:17:50;16.70;99.90
16140;DHT22;8175;49.326;12.690;2023-07-28T20:20:16;16.70;99.90
16140;DHT22;8175;49.326;12.690;2023-07-28T20:22:42;16.60;99.90
16140;DHT22;8175;49.326;12.690;2023-07-28T20:25:08;16.70;99.90
16140;DHT22;8175;49.326;12.690;2023-07-28T20:27:42;16.60;99.90
16140;DHT22;8175;49.326;12.690;2023-07-28T20:30:08;16.70;99.90
16140;DHT22;8175;49.326;12.690;2023-07-28T20:32:34;16.70;99.90
16140;DHT22;8175;49.326;12.690;2023-07-28T20:34:59;16.80;99.90
16140;DHT22;8175;49.326;12.690;2023-07-28T20:37:25;16.80;99.90
16140;DHT22;8175;49.326;12.690;2023-07-28T20:39:50;16.90;99.90
16140;DHT22;8175;49.326;12.690;2023-07-28T20:42:16;16.90;99.90
16140;DHT22;8175;49.326;12.690;2023-07-28T20:44:44;16.90;99.90
16140;DHT22;8175;49.326;12.690;2023-07-28T20:47:11;16.90;99.90
16140;DHT22;8175;49.326;12.690;2023-07-28T20:49:37;16.90;99.90
16140;DHT22;8175;49.326;12.690;2023-07-28T20:52:03;17.00;99.90
16140;DHT22;8175;49.326;12.690;2023-07-28T20:54:29;17.10;99.90
16140;DHT22;8175;49.326;12.690;2023-07-28T20:56:55;17.10;99.90
16140;DHT22;8175;49.326;12.690;2023-07-28T20:59:20;17.20;99.90
16140;DHT22;8175;49.326;12.690;2023-07-28T21:01:46;17.20;99.90
16140;DHT22;8175;49.326;12.690;2023-07-28T21:04:11;17.20;99.90
16140;DHT22;8175;49.326;12.690;2023-07-28T21:06:37;17.20;99.90
16140;DHT22;8175;49.326;12.690;2023-07-28T21:09:03;17.20;99.90
16140;DHT22;8175;49.326;12.690;2023-07-28T21:11:29;17.10;99.90
16140;DHT22;8175;49.326;12.690;2023-07-28T21:13:55;17.10;99.90